sensor_id;sensor_type;location;lat;lon;timestamp;temperature;humidity
16863;DHT22;52193;48.216;-1.698;2023-02-15T00:01:05;12.30;86.80
16863;DHT22;52193;48.216;-1.698;2023-02-15T00:03:32;12.20;86.70
16863;DHT22;52193;48.216;-1.698;2023-02-15T00:05:59;12.20;86.80
16863;DHT22;52193;48.216;-1.698;2023-02-15T00:08:26;12.20;86.90
16863;DHT22;52193;48.216;-1.698;2023-02-15T00:10:53;12.10;86.80
16863;DHT22;52193;48.216;-1.698;2023-02-15T00:13:29;12.10;86.90
16863;DHT22;52193;48.216;-1.698;2023-02-15T00:16:02;12.10;86.80
16863;DHT22;52193;48.216;-1.698;2023-02-15T00:18:29;12.10;87.00
16863;DHT22;52193;48.216;-1.698;2023-02-15T00:20:56;12.10;87.00
16863;DHT22;52193;48.216;-1.698;2023-02-15T00:23:23;12.10;86.80
16863;DHT22;52193;48.216;-1.698;2023-02-15T00:25:50;12.20;86.90
16863;DHT22;52193;48.216;-1.698;2023-02-15T00:28:17;12.20;86.80
16863;DHT22;52193;48.216;-1.698;2023-02-15T00:30:44;12.20;86.70
16863;DHT22;52193;48.216;-1.698;2023-02-15T00:33:12;12.20;86.70
16863;DHT22;52193;48.216;-1.698;2023-02-15T00:35:39;12.20;86.80
16863;DHT22;52193;48.216;-1.698;2023-02-15T00:38:06;12.20;86.70
16863;DHT22;52193;48.216;-1.698;2023-02-15T00:40:33;12.10;86.70
16863;DHT22;52193;48.216;-1.698;2023-02-15T00:43:00;12.10;86.70
16863;DHT22;52193;48.216;-1.698;2023-02-15T00:45:27;12.20;86.70
16863;DHT22;52193;48.216;-1.698;2023-02-15T00:47:54;12.10;86.60
16863;DHT22;52193;48.216;-1.698;2023-02-15T00:50:22;12.20;86.60
16863;DHT22;52193;48.216;-1.698;2023-02-15T00:52:49;12.20;86.40
16863;DHT22;52193;48.216;-1.698;2023-02-15T00:55:16;12.20;86.30
16863;DHT22;52193;48.216;-1.698;2023-02-15T00:57:43;12.20;86.30
16863;DHT22;52193;48.216;-1.698;2023-02-15T01:00:11;12.20;86.20
16863;DHT22;52193;48.216;-1.698;2023-02-15T01:02:38;12.10;86.20
16863;DHT22;52193;48.216;-1.698;2023-02-15T01:05:06;12.10;86.20
16863;DHT22;52193;48.216;-1.698;2023-02-15T01:07:34;12.10;86.20
16863;DHT22;52193;48.216;-1.698;2023-02-15T01:10:01;12.10;86.20
16863;DHT22;52193;48.216;-1.698;2023-02-15T01:12:28;12.00;86.20
16863;DHT22;52193;48.216;-1.698;2023-02-15T01:14:55;12.00;86.20
16863;DHT22;52193;48.216;-1.698;2023-02-15T01:17:22;11.90;86.10
16863;DHT22;52193;48.216;-1.698;2023-02-15T01:19:49;11.90;86.20
16863;DHT22;52193;48.216;-1.698;2023-02-15T01:22:17;11.90;86.30
16863;DHT22;52193;48.216;-1.698;2023-02-15T01:24:48;11.90;86.20
16863;DHT22;52193;48.216;-1.698;2023-02-15T01:27:15;11.90;86.20
16863;DHT22;52193;48.216;-1.698;2023-02-15T01:29:42;11.90;86.30
16863;DHT22;52193;48.216;-1.698;2023-02-15T01:32:09;11.90;86.30
16863;DHT22;52193;48.216;-1.698;2023-02-15T01:34:36;11.90;86.20
16863;DHT22;52193;48.216;-1.698;2023-02-15T01:37:03;11.90;86.20
16863;DHT22;52193;48.216;-1.698;2023-02-15T01:39:30;11.80;86.20
16863;DHT22;52193;48.216;-1.698;2023-02-15T01:41:58;11.80;86.20
16863;DHT22;52193;48.216;-1.698;2023-02-15T01:44:48;11.80;86.10
16863;DHT22;52193;48.216;-1.698;2023-02-15T01:47:17;11.80;86.20
16863;DHT22;52193;48.216;-1.698;2023-02-15T01:49:46;11.80;86.20
16863;DHT22;52193;48.216;-1.698;2023-02-15T01:52:16;11.80;86.20
16863;DHT22;52193;48.216;-1.698;2023-02-15T01:54:45;11.80;86.10
16863;DHT22;52193;48.216;-1.698;2023-02-15T01:57:18;11.80;86.00
16863;DHT22;52193;48.216;-1.698;2023-02-15T01:59:51;11.90;86.00
16863;DHT22;52193;48.216;-1.698;2023-02-15T02:02:19;11.90;86.00
16863;DHT22;52193;48.216;-1.698;2023-02-15T02:04:52;11.90;85.90
16863;DHT22;52193;48.216;-1.698;2023-02-15T02:07:23;11.90;86.00
16863;DHT22;52193;48.216;-1.698;2023-02-15T02:09:50;11.90;85.90
16863;DHT22;52193;48.216;-1.698;2023-02-15T02:12:21;11.90;85.80
16863;DHT22;52193;48.216;-1.698;2023-02-15T02:14:50;11.90;85.80
16863;DHT22;52193;48.216;-1.698;2023-02-15T02:17:21;11.90;85.80
16863;DHT22;52193;48.216;-1.698;2023-02-15T02:20:26;11.90;85.70
16863;DHT22;52193;48.216;-1.698;2023-02-15T02:33:00;12.00;85.60
16863;DHT22;52193;48.216;-1.698;2023-02-15T02:35:38;12.00;85.50
16863;DHT22;52193;48.216;-1.698;2023-02-15T02:38:11;11.90;85.40
16863;DHT22;52193;48.216;-1.698;2023-02-15T02:40:44;11.90;85.50
16863;DHT22;52193;48.216;-1.698;2023-02-15T02:43:19;11.90;85.40
16863;DHT22;52193;48.216;-1.698;2023-02-15T02:45:53;11.90;85.50
16863;DHT22;52193;48.216;-1.698;2023-02-15T02:48:25;11.90;85.50
16863;DHT22;52193;48.216;-1.698;2023-02-15T02:50:54;11.80;85.60
16863;DHT22;52193;48.216;-1.698;2023-02-15T02:53:21;11.80;85.70
16863;DHT22;52193;48.216;-1.698;2023-02-15T02:55:50;11.80;85.60
16863;DHT22;52193;48.216;-1.698;2023-02-15T02:58:21;11.80;85.70
16863;DHT22;52193;48.216;-1.698;2023-02-15T03:00:54;11.80;85.70
16863;DHT22;52193;48.216;-1.698;2023-02-15T03:03:27;11.80;85.80
16863;DHT22;52193;48.216;-1.698;2023-02-15T03:05:59;11.80;85.70
16863;DHT22;52193;48.216;-1.698;2023-02-15T03:08:34;11.80;85.70
16863;DHT22;52193;48.216;-1.698;2023-02-15T03:11:03;11.90;85.80
16863;DHT22;52193;48.216;-1.698;2023-02-15T03:13:31;11.90;85.70
16863;DHT22;52193;48.216;-1.698;2023-02-15T03:16:00;11.80;85.50
16863;DHT22;52193;48.216;-1.698;2023-02-15T03:18:49;11.80;85.70
16863;DHT22;52193;48.216;-1.698;2023-02-15T03:21:26;11.80;85.70
16863;DHT22;52193;48.216;-1.698;2023-02-15T03:23:58;11.70;85.70
16863;DHT22;52193;48.216;-1.698;2023-02-15T03:26:27;11.80;85.80
16863;DHT22;52193;48.216;-1.698;2023-02-15T03:28:57;11.80;85.70
16863;DHT22;52193;48.216;-1.698;2023-02-15T03:31:28;11.80;85.70
16863;DHT22;52193;48.216;-1.698;2023-02-15T03:34:02;11.70;85.70
16863;DHT22;52193;48.216;-1.698;2023-02-15T03:36:36;11.70;85.70
16863;DHT22;52193;48.216;-1.698;2023-02-15T03:39:12;11.80;85.80
16863;DHT22;52193;48.216;-1.698;2023-02-15T03:41:48;11.70;85.80
16863;DHT22;52193;48.216;-1.698;2023-02-15T03:44:20;11.80;85.80
16863;DHT22;52193;48.216;-1.698;2023-02-15T03:46:55;11.80;85.80
16863;DHT22;52193;48.216;-1.698;2023-02-15T03:49:27;11.70;85.80
16863;DHT22;52193;48.216;-1.698;2023-02-15T03:51:56;11.70;86.50
16863;DHT22;52193;48.216;-1.698;2023-02-15T03:54:25;11.70;85.90
16863;DHT22;52193;48.216;-1.698;2023-02-15T03:57:11;11.70;86.00
16863;DHT22;52193;48.216;-1.698;2023-02-15T03:59:56;11.60;85.90
16863;DHT22;52193;48.216;-1.698;2023-02-15T04:02:48;11.60;85.90
16863;DHT22;52193;48.216;-1.698;2023-02-15T04:05:20;11.60;86.00
16863;DHT22;52193;48.216;-1.698;2023-02-15T04:07:47;11.60;86.00
16863;DHT22;52193;48.216;-1.698;2023-02-15T04:10:14;11.60;86.00
16863;DHT22;52193;48.216;-1.698;2023-02-15T04:12:59;11.50;86.00
16863;DHT22;52193;48.216;-1.698;2023-02-15T04:15:26;11.50;86.00
16863;DHT22;52193;48.216;-1.698;2023-02-15T04:18:10;11.50;86.10
16863;DHT22;52193;48.216;-1.698;2023-02-15T04:20:39;11.50;86.00
16863;DHT22;52193;48.216;-1.698;2023-02-15T04:23:23;11.40;86.00
16863;DHT22;52193;48.216;-1.698;2023-02-15T04:26:07;11.40;86.00
16863;DHT22;52193;48.216;-1.698;2023-02-15T04:28:34;11.40;86.00
16863;DHT22;52193;48.216;-1.698;2023-02-15T04:31:01;11.40;86.00
16863;DHT22;52193;48.216;-1.698;2023-02-15T04:33:28;11.40;85.90
16863;DHT22;52193;48.216;-1.698;2023-02-15T04:35:56;11.40;85.90
16863;DHT22;52193;48.216;-1.698;2023-02-15T04:38:23;11.30;85.80
16863;DHT22;52193;48.216;-1.698;2023-02-15T04:40:51;11.30;85.80
16863;DHT22;52193;48.216;-1.698;2023-02-15T04:43:18;11.30;85.90
16863;DHT22;52193;48.216;-1.698;2023-02-15T04:45:48;11.20;85.90
16863;DHT22;52193;48.216;-1.698;2023-02-15T04:48:16;11.30;85.90
16863;DHT22;52193;48.216;-1.698;2023-02-15T04:50:43;11.30;86.60
16863;DHT22;52193;48.216;-1.698;2023-02-15T04:53:12;11.30;85.90
16863;DHT22;52193;48.216;-1.698;2023-02-15T04:55:39;11.20;85.80
16863;DHT22;52193;48.216;-1.698;2023-02-15T04:58:06;11.20;85.90
16863;DHT22;52193;48.216;-1.698;2023-02-15T05:00:33;11.20;85.90
16863;DHT22;52193;48.216;-1.698;2023-02-15T05:03:00;11.20;86.00
16863;DHT22;52193;48.216;-1.698;2023-02-15T05:05:27;11.20;86.00
16863;DHT22;52193;48.216;-1.698;2023-02-15T05:07:54;11.20;85.90
16863;DHT22;52193;48.216;-1.698;2023-02-15T05:10:22;11.20;85.90
16863;DHT22;52193;48.216;-1.698;2023-02-15T05:12:49;11.20;85.90
16863;DHT22;52193;48.216;-1.698;2023-02-15T05:15:16;11.20;86.00
16863;DHT22;52193;48.216;-1.698;2023-02-15T05:17:43;11.20;86.60
16863;DHT22;52193;48.216;-1.698;2023-02-15T05:20:10;11.20;86.00
16863;DHT22;52193;48.216;-1.698;2023-02-15T05:22:37;11.20;85.90
16863;DHT22;52193;48.216;-1.698;2023-02-15T05:25:07;11.20;85.90
16863;DHT22;52193;48.216;-1.698;2023-02-15T05:27:53;11.20;85.90
16863;DHT22;52193;48.216;-1.698;2023-02-15T05:30:37;11.20;85.90
16863;DHT22;52193;48.216;-1.698;2023-02-15T05:33:05;11.20;85.80
16863;DHT22;52193;48.216;-1.698;2023-02-15T05:35:32;11.10;85.70
16863;DHT22;52193;48.216;-1.698;2023-02-15T05:37:59;11.20;85.80
16863;DHT22;52193;48.216;-1.698;2023-02-15T05:40:26;11.20;86.50
16863;DHT22;52193;48.216;-1.698;2023-02-15T05:42:56;11.20;85.80
16863;DHT22;52193;48.216;-1.698;2023-02-15T05:45:23;11.10;85.70
16863;DHT22;52193;48.216;-1.698;2023-02-15T05:47:50;11.20;85.80
16863;DHT22;52193;48.216;-1.698;2023-02-15T05:50:17;11.20;85.70
16863;DHT22;52193;48.216;-1.698;2023-02-15T05:52:44;11.20;85.70
16863;DHT22;52193;48.216;-1.698;2023-02-15T05:55:11;11.20;85.70
16863;DHT22;52193;48.216;-1.698;2023-02-15T05:57:38;11.10;85.60
16863;DHT22;52193;48.216;-1.698;2023-02-15T06:00:08;11.10;85.70
16863;DHT22;52193;48.216;-1.698;2023-02-15T06:02:35;11.10;85.70
16863;DHT22;52193;48.216;-1.698;2023-02-15T06:05:03;11.20;85.80
16863;DHT22;52193;48.216;-1.698;2023-02-15T06:07:30;11.10;85.60
16863;DHT22;52193;48.216;-1.698;2023-02-15T06:09:57;11.20;85.80
16863;DHT22;52193;48.216;-1.698;2023-02-15T06:12:24;11.10;85.70
16863;DHT22;52193;48.216;-1.698;2023-02-15T06:14:51;11.10;85.70
16863;DHT22;52193;48.216;-1.698;2023-02-15T06:17:19;11.10;85.70
16863;DHT22;52193;48.216;-1.698;2023-02-15T06:19:47;11.10;85.70
16863;DHT22;52193;48.216;-1.698;2023-02-15T06:22:14;11.10;85.70
16863;DHT22;52193;48.216;-1.698;2023-02-15T06:24:41;11.00;85.50
16863;DHT22;52193;48.216;-1.698;2023-02-15T06:27:09;11.00;85.60
16863;DHT22;52193;48.216;-1.698;2023-02-15T06:29:36;11.00;85.60
16863;DHT22;52193;48.216;-1.698;2023-02-15T06:32:03;11.00;85.60
16863;DHT22;52193;48.216;-1.698;2023-02-15T06:34:32;10.90;85.60
16863;DHT22;52193;48.216;-1.698;2023-02-15T06:36:59;10.90;85.60
16863;DHT22;52193;48.216;-1.698;2023-02-15T06:39:26;10.80;85.60
16863;DHT22;52193;48.216;-1.698;2023-02-15T06:41:53;10.80;85.70
16863;DHT22;52193;48.216;-1.698;2023-02-15T06:44:20;10.80;85.80
16863;DHT22;52193;48.216;-1.698;2023-02-15T06:46:47;10.70;85.90
16863;DHT22;52193;48.216;-1.698;2023-02-15T06:49:14;10.70;85.90
16863;DHT22;52193;48.216;-1.698;2023-02-15T06:51:42;10.60;85.80
16863;DHT22;52193;48.216;-1.698;2023-02-15T06:54:09;10.70;85.90
16863;DHT22;52193;48.216;-1.698;2023-02-15T06:56:36;10.60;85.80
16863;DHT22;52193;48.216;-1.698;2023-02-15T06:59:04;10.60;86.00
16863;DHT22;52193;48.216;-1.698;2023-02-15T07:01:31;10.50;85.90
16863;DHT22;52193;48.216;-1.698;2023-02-15T07:03:58;10.50;86.00
16863;DHT22;52193;48.216;-1.698;2023-02-15T07:06:25;10.50;86.00
16863;DHT22;52193;48.216;-1.698;2023-02-15T07:08:53;10.50;86.00
16863;DHT22;52193;48.216;-1.698;2023-02-15T07:11:20;10.40;85.90
16863;DHT22;52193;48.216;-1.698;2023-02-15T07:14:04;10.40;85.90
16863;DHT22;52193;48.216;-1.698;2023-02-15T07:16:31;10.30;85.90
16863;DHT22;52193;48.216;-1.698;2023-02-15T07:18:58;10.30;86.00
16863;DHT22;52193;48.216;-1.698;2023-02-15T07:21:25;10.30;86.00
16863;DHT22;52193;48.216;-1.698;2023-02-15T07:23:56;10.20;86.00
16863;DHT22;52193;48.216;-1.698;2023-02-15T07:26:23;10.20;86.10
16863;DHT22;52193;48.216;-1.698;2023-02-15T07:28:51;10.20;86.10
16863;DHT22;52193;48.216;-1.698;2023-02-15T07:31:18;10.20;86.10
16863;DHT22;52193;48.216;-1.698;2023-02-15T07:33:45;10.20;86.10
16863;DHT22;52193;48.216;-1.698;2023-02-15T07:36:12;10.30;86.20
16863;DHT22;52193;48.216;-1.698;2023-02-15T07:38:41;10.30;86.10
16863;DHT22;52193;48.216;-1.698;2023-02-15T07:41:11;10.30;86.00
16863;DHT22;52193;48.216;-1.698;2023-02-15T07:43:40;10.30;86.00
16863;DHT22;52193;48.216;-1.698;2023-02-15T07:46:09;10.30;86.00
16863;DHT22;52193;48.216;-1.698;2023-02-15T07:48:37;10.30;85.90
16863;DHT22;52193;48.216;-1.698;2023-02-15T07:51:07;10.30;85.80
16863;DHT22;52193;48.216;-1.698;2023-02-15T07:53:35;10.30;85.90
16863;DHT22;52193;48.216;-1.698;2023-02-15T07:56:03;10.30;85.90
16863;DHT22;52193;48.216;-1.698;2023-02-15T07:58:33;10.30;85.90
16863;DHT22;52193;48.216;-1.698;2023-02-15T08:01:19;10.40;86.00
16863;DHT22;52193;48.216;-1.698;2023-02-15T08:03:46;10.30;86.00
16863;DHT22;52193;48.216;-1.698;2023-02-15T08:06:14;10.40;86.10
16863;DHT22;52193;48.216;-1.698;2023-02-15T08:08:41;10.40;86.00
16863;DHT22;52193;48.216;-1.698;2023-02-15T08:11:15;10.40;86.00
16863;DHT22;52193;48.216;-1.698;2023-02-15T08:14:05;10.40;86.00
16863;DHT22;52193;48.216;-1.698;2023-02-15T08:16:34;10.50;86.00
16863;DHT22;52193;48.216;-1.698;2023-02-15T08:19:04;10.50;85.80
16863;DHT22;52193;48.216;-1.698;2023-02-15T08:21:32;10.50;85.60
16863;DHT22;52193;48.216;-1.698;2023-02-15T08:23:59;10.60;85.80
16863;DHT22;52193;48.216;-1.698;2023-02-15T08:26:27;10.60;85.30
16863;DHT22;52193;48.216;-1.698;2023-02-15T08:28:54;10.60;85.10
16863;DHT22;52193;48.216;-1.698;2023-02-15T08:31:23;10.70;85.10
16863;DHT22;52193;48.216;-1.698;2023-02-15T08:33:51;10.70;85.10
16863;DHT22;52193;48.216;-1.698;2023-02-15T08:36:21;10.80;85.20
16863;DHT22;52193;48.216;-1.698;2023-02-15T08:38:48;10.80;85.10
16863;DHT22;52193;48.216;-1.698;2023-02-15T08:41:17;10.90;85.10
16863;DHT22;52193;48.216;-1.698;2023-02-15T08:43:46;10.90;85.00
16863;DHT22;52193;48.216;-1.698;2023-02-15T08:46:14;10.90;85.00
16863;DHT22;52193;48.216;-1.698;2023-02-15T08:48:43;10.90;85.00
16863;DHT22;52193;48.216;-1.698;2023-02-15T08:51:11;10.90;85.00
16863;DHT22;52193;48.216;-1.698;2023-02-15T08:53:40;11.00;85.00
16863;DHT22;52193;48.216;-1.698;2023-02-15T08:56:08;11.00;85.00
16863;DHT22;52193;48.216;-1.698;2023-02-15T08:58:36;11.00;85.00
16863;DHT22;52193;48.216;-1.698;2023-02-15T09:01:09;11.10;85.10
16863;DHT22;52193;48.216;-1.698;2023-02-15T09:03:36;11.10;85.20
16863;DHT22;52193;48.216;-1.698;2023-02-15T09:06:05;11.20;85.40
16863;DHT22;52193;48.216;-1.698;2023-02-15T09:08:33;11.20;85.40
16863;DHT22;52193;48.216;-1.698;2023-02-15T09:11:08;11.20;85.40
16863;DHT22;52193;48.216;-1.698;2023-02-15T09:13:35;11.30;85.50
16863;DHT22;52193;48.216;-1.698;2023-02-15T09:16:03;11.30;85.50
16863;DHT22;52193;48.216;-1.698;2023-02-15T09:18:33;11.30;85.50
16863;DHT22;52193;48.216;-1.698;2023-02-15T09:21:07;11.30;85.60
16863;DHT22;52193;48.216;-1.698;2023-02-15T09:23:35;11.40;85.90
16863;DHT22;52193;48.216;-1.698;2023-02-15T09:26:04;11.40;85.90
16863;DHT22;52193;48.216;-1.698;2023-02-15T09:28:31;11.50;86.00
16863;DHT22;52193;48.216;-1.698;2023-02-15T09:31:05;11.60;86.20
16863;DHT22;52193;48.216;-1.698;2023-02-15T09:33:33;11.70;86.30
16863;DHT22;52193;48.216;-1.698;2023-02-15T09:36:01;11.70;86.40
16863;DHT22;52193;48.216;-1.698;2023-02-15T09:38:30;11.70;86.40
16863;DHT22;52193;48.216;-1.698;2023-02-15T09:41:05;11.80;86.60
16863;DHT22;52193;48.216;-1.698;2023-02-15T09:43:39;11.80;86.70
16863;DHT22;52193;48.216;-1.698;2023-02-15T09:46:24;11.90;87.00
16863;DHT22;52193;48.216;-1.698;2023-02-15T09:48:56;11.90;87.30
16863;DHT22;52193;48.216;-1.698;2023-02-15T09:54:43;11.90;87.70
16863;DHT22;52193;48.216;-1.698;2023-02-15T09:57:19;11.90;87.90
16863;DHT22;52193;48.216;-1.698;2023-02-15T09:59:56;11.90;88.20
16863;DHT22;52193;48.216;-1.698;2023-02-15T10:02:35;11.90;88.40
16863;DHT22;52193;48.216;-1.698;2023-02-15T10:05:15;11.90;89.30
16863;DHT22;52193;48.216;-1.698;2023-02-15T10:08:00;12.00;88.70
16863;DHT22;52193;48.216;-1.698;2023-02-15T10:10:41;12.20;88.70
16863;DHT22;52193;48.216;-1.698;2023-02-15T10:13:21;12.30;88.80
16863;DHT22;52193;48.216;-1.698;2023-02-15T10:16:01;12.30;88.70
16863;DHT22;52193;48.216;-1.698;2023-02-15T10:18:45;12.40;88.90
16863;DHT22;52193;48.216;-1.698;2023-02-15T10:21:23;12.50;89.00
16863;DHT22;52193;48.216;-1.698;2023-02-15T10:24:21;12.50;89.10
16863;DHT22;52193;48.216;-1.698;2023-02-15T10:26:57;12.60;89.20
16863;DHT22;52193;48.216;-1.698;2023-02-15T10:29:31;12.70;89.20
16863;DHT22;52193;48.216;-1.698;2023-02-15T10:32:05;12.80;89.30
16863;DHT22;52193;48.216;-1.698;2023-02-15T10:34:38;12.90;90.10
16863;DHT22;52193;48.216;-1.698;2023-02-15T10:37:27;12.90;89.80
16863;DHT22;52193;48.216;-1.698;2023-02-15T10:40:04;13.00;90.10
16863;DHT22;52193;48.216;-1.698;2023-02-15T10:42:46;13.00;90.10
16863;DHT22;52193;48.216;-1.698;2023-02-15T10:45:22;13.10;90.20
16863;DHT22;52193;48.216;-1.698;2023-02-15T10:48:12;13.10;90.40
16863;DHT22;52193;48.216;-1.698;2023-02-15T10:50:47;13.20;90.50
16863;DHT22;52193;48.216;-1.698;2023-02-15T10:53:42;13.30;90.50
16863;DHT22;52193;48.216;-1.698;2023-02-15T10:56:17;13.30;90.60
16863;DHT22;52193;48.216;-1.698;2023-02-15T10:59:01;13.30;90.70
16863;DHT22;52193;48.216;-1.698;2023-02-15T11:01:35;13.30;90.70
16863;DHT22;52193;48.216;-1.698;2023-02-15T11:07:16;13.50;90.80
16863;DHT22;52193;48.216;-1.698;2023-02-15T11:09:48;13.70;90.70
16863;DHT22;52193;48.216;-1.698;2023-02-15T11:12:21;13.70;90.80
16863;DHT22;52193;48.216;-1.698;2023-02-15T11:14:55;13.80;90.70
16863;DHT22;52193;48.216;-1.698;2023-02-15T11:17:26;13.90;90.70
16863;DHT22;52193;48.216;-1.698;2023-02-15T11:20:02;14.10;90.80
16863;DHT22;52193;48.216;-1.698;2023-02-15T11:22:32;14.10;90.70
16863;DHT22;52193;48.216;-1.698;2023-02-15T11:25:00;14.20;90.70
16863;DHT22;52193;48.216;-1.698;2023-02-15T11:27:30;14.30;90.80
16863;DHT22;52193;48.216;-1.698;2023-02-15T11:30:01;14.40;90.80
16863;DHT22;52193;48.216;-1.698;2023-02-15T11:32:31;14.50;90.80
16863;DHT22;52193;48.216;-1.698;2023-02-15T11:35:02;14.50;90.80
16863;DHT22;52193;48.216;-1.698;2023-02-15T11:37:35;14.60;90.80
16863;DHT22;52193;48.216;-1.698;2023-02-15T11:40:17;14.60;90.90
16863;DHT22;52193;48.216;-1.698;2023-02-15T11:42:47;14.80;91.00
16863;DHT22;52193;48.216;-1.698;2023-02-15T11:45:22;14.90;91.00
16863;DHT22;52193;48.216;-1.698;2023-02-15T11:47:53;15.00;91.10
16863;DHT22;52193;48.216;-1.698;2023-02-15T11:50:22;14.90;91.10
16863;DHT22;52193;48.216;-1.698;2023-02-15T11:52:51;14.90;91.20
16863;DHT22;52193;48.216;-1.698;2023-02-15T11:55:21;15.10;91.20
16863;DHT22;52193;48.216;-1.698;2023-02-15T11:57:53;15.20;91.20
16863;DHT22;52193;48.216;-1.698;2023-02-15T12:00:31;15.40;91.20
16863;DHT22;52193;48.216;-1.698;2023-02-15T12:03:04;15.50;91.10
16863;DHT22;52193;48.216;-1.698;2023-02-15T12:05:37;15.60;91.10
16863;DHT22;52193;48.216;-1.698;2023-02-15T12:08:15;15.70;91.10
16863;DHT22;52193;48.216;-1.698;2023-02-15T12:10:50;15.80;91.10
16863;DHT22;52193;48.216;-1.698;2023-02-15T12:13:20;15.90;91.00
16863;DHT22;52193;48.216;-1.698;2023-02-15T12:15:51;16.00;91.00
16863;DHT22;52193;48.216;-1.698;2023-02-15T12:18:23;16.10;91.00
16863;DHT22;52193;48.216;-1.698;2023-02-15T12:20:52;16.30;91.00
16863;DHT22;52193;48.216;-1.698;2023-02-15T12:23:20;16.20;90.90
16863;DHT22;52193;48.216;-1.698;2023-02-15T12:25:51;16.30;90.90
16863;DHT22;52193;48.216;-1.698;2023-02-15T12:28:29;16.40;90.80
16863;DHT22;52193;48.216;-1.698;2023-02-15T12:31:01;16.60;90.90
16863;DHT22;52193;48.216;-1.698;2023-02-15T12:33:30;16.60;90.80
16863;DHT22;52193;48.216;-1.698;2023-02-15T12:36:01;16.60;91.10
16863;DHT22;52193;48.216;-1.698;2023-02-15T12:38:30;16.70;90.80
16863;DHT22;52193;48.216;-1.698;2023-02-15T12:40:59;16.80;90.80
16863;DHT22;52193;48.216;-1.698;2023-02-15T12:43:29;16.90;90.80
16863;DHT22;52193;48.216;-1.698;2023-02-15T12:46:18;17.00;90.70
16863;DHT22;52193;48.216;-1.698;2023-02-15T12:48:46;17.10;90.70
16863;DHT22;52193;48.216;-1.698;2023-02-15T12:51:15;17.20;90.80
16863;DHT22;52193;48.216;-1.698;2023-02-15T12:53:42;17.20;90.70
16863;DHT22;52193;48.216;-1.698;2023-02-15T12:56:09;17.20;90.70
16863;DHT22;52193;48.216;-1.698;2023-02-15T12:58:38;17.40;90.80
16863;DHT22;52193;48.216;-1.698;2023-02-15T13:01:13;17.40;90.70
16863;DHT22;52193;48.216;-1.698;2023-02-15T13:03:55;17.60;90.70
16863;DHT22;52193;48.216;-1.698;2023-02-15T13:06:24;17.70;90.70
16863;DHT22;52193;48.216;-1.698;2023-02-15T13:08:54;17.80;90.60
16863;DHT22;52193;48.216;-1.698;2023-02-15T13:11:25;17.80;90.60
16863;DHT22;52193;48.216;-1.698;2023-02-15T13:13:55;17.90;90.60
16863;DHT22;52193;48.216;-1.698;2023-02-15T13:16:30;17.90;90.60
16863;DHT22;52193;48.216;-1.698;2023-02-15T13:19:03;18.00;90.70
16863;DHT22;52193;48.216;-1.698;2023-02-15T13:21:35;18.00;90.60
16863;DHT22;52193;48.216;-1.698;2023-02-15T13:24:06;18.10;90.60
16863;DHT22;52193;48.216;-1.698;2023-02-15T13:26:35;18.10;90.60
16863;DHT22;52193;48.216;-1.698;2023-02-15T13:29:06;18.20;90.50
16863;DHT22;52193;48.216;-1.698;2023-02-15T13:31:36;18.30;90.60
16863;DHT22;52193;48.216;-1.698;2023-02-15T13:34:09;18.40;90.50
16863;DHT22;52193;48.216;-1.698;2023-02-15T13:36:44;18.50;90.40
16863;DHT22;52193;48.216;-1.698;2023-02-15T13:39:22;18.60;90.40
16863;DHT22;52193;48.216;-1.698;2023-02-15T13:41:56;18.60;90.40
16863;DHT22;52193;48.216;-1.698;2023-02-15T13:44:37;18.60;90.30
16863;DHT22;52193;48.216;-1.698;2023-02-15T13:47:19;18.70;90.30
16863;DHT22;52193;48.216;-1.698;2023-02-15T13:50:13;18.80;90.30
16863;DHT22;52193;48.216;-1.698;2023-02-15T13:52:50;18.70;90.20
16863;DHT22;52193;48.216;-1.698;2023-02-15T13:55:28;18.70;90.20
16863;DHT22;52193;48.216;-1.698;2023-02-15T13:58:15;18.90;90.40
16863;DHT22;52193;48.216;-1.698;2023-02-15T14:00:50;18.90;90.30
16863;DHT22;52193;48.216;-1.698;2023-02-15T14:06:48;19.10;90.30
16863;DHT22;52193;48.216;-1.698;2023-02-15T14:09:28;19.10;90.20
16863;DHT22;52193;48.216;-1.698;2023-02-15T14:12:08;19.10;90.20
16863;DHT22;52193;48.216;-1.698;2023-02-15T14:14:55;19.20;90.20
16863;DHT22;52193;48.216;-1.698;2023-02-15T14:17:33;19.30;90.20
16863;DHT22;52193;48.216;-1.698;2023-02-15T14:20:15;19.40;90.10
16863;DHT22;52193;48.216;-1.698;2023-02-15T14:22:46;19.40;90.10
16863;DHT22;52193;48.216;-1.698;2023-02-15T14:25:20;19.50;90.20
16863;DHT22;52193;48.216;-1.698;2023-02-15T14:27:56;19.60;90.10
16863;DHT22;52193;48.216;-1.698;2023-02-15T14:30:29;19.60;90.10
16863;DHT22;52193;48.216;-1.698;2023-02-15T14:33:01;19.80;90.00
16863;DHT22;52193;48.216;-1.698;2023-02-15T14:35:30;19.90;90.00
16863;DHT22;52193;48.216;-1.698;2023-02-15T14:38:02;20.10;90.00
16863;DHT22;52193;48.216;-1.698;2023-02-15T14:40:37;20.20;90.00
16863;DHT22;52193;48.216;-1.698;2023-02-15T14:43:32;20.40;89.80
16863;DHT22;52193;48.216;-1.698;2023-02-15T14:46:07;20.60;89.60
16863;DHT22;52193;48.216;-1.698;2023-02-15T14:48:40;20.70;89.30
16863;DHT22;52193;48.216;-1.698;2023-02-15T14:51:10;20.90;89.10
16863;DHT22;52193;48.216;-1.698;2023-02-15T14:53:57;21.00;88.80
16863;DHT22;52193;48.216;-1.698;2023-02-15T14:56:25;21.20;88.70
16863;DHT22;52193;48.216;-1.698;2023-02-15T14:59:12;21.40;88.50
16863;DHT22;52193;48.216;-1.698;2023-02-15T15:01:41;21.60;88.30
16863;DHT22;52193;48.216;-1.698;2023-02-15T15:04:10;21.80;87.90
16863;DHT22;52193;48.216;-1.698;2023-02-15T15:06:42;22.10;87.90
16863;DHT22;52193;48.216;-1.698;2023-02-15T15:09:12;22.30;87.70
16863;DHT22;52193;48.216;-1.698;2023-02-15T15:11:45;22.60;87.40
16863;DHT22;52193;48.216;-1.698;2023-02-15T15:14:38;22.80;87.00
16863;DHT22;52193;48.216;-1.698;2023-02-15T15:17:08;23.60;86.70
16863;DHT22;52193;48.216;-1.698;2023-02-15T15:20:04;27.30;83.40
16863;DHT22;52193;48.216;-1.698;2023-02-15T15:22:41;30.70;77.30
16863;DHT22;52193;48.216;-1.698;2023-02-15T15:27:53;33.70;71.70
16863;DHT22;52193;48.216;-1.698;2023-02-15T15:42:43;31.80;67.90
16863;DHT22;52193;48.216;-1.698;2023-02-15T15:45:29;29.20;71.00
16863;DHT22;52193;48.216;-1.698;2023-02-15T15:48:14;27.60;72.80
16863;DHT22;52193;48.216;-1.698;2023-02-15T15:50:43;26.80;74.20
16863;DHT22;52193;48.216;-1.698;2023-02-15T15:53:18;26.10;75.10
16863;DHT22;52193;48.216;-1.698;2023-02-15T15:55:49;25.60;75.40
16863;DHT22;52193;48.216;-1.698;2023-02-15T15:58:18;25.10;75.80
16863;DHT22;52193;48.216;-1.698;2023-02-15T16:00:48;24.60;76.50
16863;DHT22;52193;48.216;-1.698;2023-02-15T16:03:20;24.30;77.20
16863;DHT22;52193;48.216;-1.698;2023-02-15T16:05:48;24.10;77.80
16863;DHT22;52193;48.216;-1.698;2023-02-15T16:08:26;23.70;77.70
16863;DHT22;52193;48.216;-1.698;2023-02-15T16:10:55;23.30;78.20
16863;DHT22;52193;48.216;-1.698;2023-02-15T16:13:23;23.00;78.90
16863;DHT22;52193;48.216;-1.698;2023-02-15T16:15:52;22.80;79.30
16863;DHT22;52193;48.216;-1.698;2023-02-15T16:18:22;22.60;79.70